Back to Top

Language: 

My Weather Underground Personal Weather Station Historical Data with Graphs...

Delerius Weather Station Historical Data
Daily Summary for October 22, 2017 Units:  Metric    English   Both
« Previous Day
Next Day »
Daily Weekly Monthly Yearly Custom
  High: Low: Average:
Temperature: 12.1 °C 8.9 °C 10.2 °C
Dew Point: 9.2 °C 5.8 °C 7.2 °C
Humidity: 90 % 72 % 82 %
Wind Speed: 37 km/h 4.8 km/h 24.3 km/h
Wind Gust: 64.4 km/h - -
Wind:- - WNW
Pressure: 1014.8 hPa 997.5 hPa -
Precipitation: 0 mm    
Historical Graphs
 
 
Tabular Data for October 22, 2017
Time Temperature Dew Point Pressure Wind Wind Speed Wind Gust Humidity Rainfall Rate (Hourly) solar Conditions
00:03 11.1 °C 9.2 °C 997.5 hPa West 30.6 km/h 49.9 km/h 88 % 0 mm 0 W/m2
00:08 10.9 °C 9 °C 997.5 hPa WNW 29 km/h 46.7 km/h 88 % 0 mm 0 W/m2
00:13 10.8 °C 8.9 °C 997.5 hPa West 25.7 km/h 46.7 km/h 88 % 0 mm 0 W/m2
00:18 10.8 °C 8.7 °C 997.5 hPa West 25.7 km/h 46.7 km/h 87 % 0 mm 0 W/m2
00:23 10.8 °C 8.7 °C 997.9 hPa West 24.1 km/h 45.1 km/h 87 % 0 mm 0 W/m2
00:28 10.7 °C 8.6 °C 997.9 hPa West 25.7 km/h 45.1 km/h 87 % 0 mm 0 W/m2
00:29 10.7 °C 8.6 °C 997.9 hPa West 25.7 km/h 45.1 km/h 87 % 0 mm 0 W/m2
00:34 10.6 °C 8.5 °C 997.9 hPa West 30.6 km/h 53.1 km/h 87 % 0 mm 0 W/m2
00:39 10.6 °C 8.5 °C 998.2 hPa West 29 km/h 53.1 km/h 87 % 0 mm 0 W/m2
00:44 10.5 °C 8.4 °C 998.2 hPa West 24.1 km/h 43.5 km/h 87 % 0 mm 0 W/m2
00:49 10.5 °C 8.3 °C 998.2 hPa West 27.4 km/h 46.7 km/h 86 % 0 mm 0 W/m2
00:54 10.5 °C 8.3 °C 998.5 hPa West 30.6 km/h 51.5 km/h 86 % 0 mm 0 W/m2
00:59 10.4 °C 8.3 °C 998.5 hPa West 29 km/h 51.5 km/h 87 % 0 mm 0 W/m2
01:04 10.3 °C 8.2 °C 998.5 hPa West 25.7 km/h 43.5 km/h 87 % 0 mm 0 W/m2
01:09 10.3 °C 8.2 °C 998.5 hPa West 25.7 km/h 48.3 km/h 87 % 0 mm 0 W/m2
01:14 10.4 °C 8.2 °C 998.5 hPa West 29 km/h 48.3 km/h 86 % 0 mm 0 W/m2
01:19 10.3 °C 8.1 °C 998.5 hPa West 30.6 km/h 46.7 km/h 86 % 0 mm 0 W/m2
01:24 10.3 °C 8.1 °C 998.5 hPa WNW 29 km/h 46.7 km/h 86 % 0 mm 0 W/m2
01:29 10.3 °C 7.9 °C 998.5 hPa West 29 km/h 54.7 km/h 85 % 0 mm 0 W/m2
01:34 10.3 °C 8.1 °C 998.9 hPa West 29 km/h 54.7 km/h 86 % 0 mm 0 W/m2
01:39 10.1 °C 8.1 °C 998.5 hPa West 30.6 km/h 49.9 km/h 87 % 0 mm 0 W/m2
01:44 10 °C 7.9 °C 998.9 hPa West 29 km/h 49.9 km/h 87 % 0 mm 0 W/m2
01:49 9.9 °C 7.7 °C 998.9 hPa West 30.6 km/h 64.4 km/h 86 % 0 mm 0 W/m2
01:54 10 °C 7.6 °C 998.9 hPa West 33.8 km/h 64.4 km/h 85 % 0 mm 0 W/m2
01:59 10.1 °C 7.7 °C 998.9 hPa West 30.6 km/h 56.3 km/h 85 % 0 mm 0 W/m2
02:04 10.1 °C 7.7 °C 998.9 hPa West 30.6 km/h 49.9 km/h 85 % 0 mm 0 W/m2
02:09 9.9 °C 7.5 °C 999.2 hPa West 32.2 km/h 49.9 km/h 85 % 0 mm 0 W/m2
02:14 9.9 °C 7.5 °C 999.2 hPa West 27.4 km/h 45.1 km/h 85 % 0 mm 0 W/m2
02:19 9.9 °C 7.3 °C 999.5 hPa West 25.7 km/h 45.1 km/h 84 % 0 mm 0 W/m2
02:24 9.9 °C 7.5 °C 999.5 hPa West 24.1 km/h 45.1 km/h 85 % 0 mm 0 W/m2
02:29 9.9 °C 7.5 °C 999.5 hPa West 22.5 km/h 33.8 km/h 85 % 0 mm 0 W/m2
02:34 9.9 °C 7.5 °C 999.5 hPa West 20.9 km/h 45.1 km/h 85 % 0 mm 0 W/m2
02:39 9.9 °C 7.3 °C 999.5 hPa West 22.5 km/h 45.1 km/h 84 % 0 mm 0 W/m2
02:44 9.9 °C 7.3 °C 999.5 hPa West 24.1 km/h 54.7 km/h 84 % 0 mm 0 W/m2
02:50 9.9 °C 7.3 °C 999.9 hPa West 27.4 km/h 54.7 km/h 84 % 0 mm 0 W/m2
02:55 9.9 °C 7.3 °C 999.9 hPa West 29 km/h 51.5 km/h 84 % 0 mm 0 W/m2
03:00 9.8 °C 7.2 °C 999.5 hPa West 27.4 km/h 49.9 km/h 84 % 0 mm 0 W/m2
03:05 9.8 °C 7.2 °C 999.5 hPa West 24.1 km/h 41.8 km/h 84 % 0 mm 0 W/m2
03:08 9.8 °C 7.4 °C 999.5 hPa West 24.1 km/h 41.8 km/h 85 % 0 mm 0 W/m2
03:13 9.8 °C 7.4 °C 999.5 hPa West 22.5 km/h 41.8 km/h 85 % 0 mm 0 W/m2
03:18 9.8 °C 7.6 °C 999.9 hPa West 24.1 km/h 46.7 km/h 86 % 0 mm 0 W/m2
03:23 9.9 °C 7.5 °C 999.9 hPa West 29 km/h 46.7 km/h 85 % 0 mm 0 W/m2
03:28 9.8 °C 7.6 °C 999.9 hPa West 27.4 km/h 45.1 km/h 86 % 0 mm 0 W/m2
03:33 9.8 °C 7.6 °C 999.9 hPa West 27.4 km/h 41.8 km/h 86 % 0 mm 0 W/m2
03:38 9.7 °C 7.4 °C 999.9 hPa West 30.6 km/h 45.1 km/h 86 % 0 mm 0 W/m2
03:43 9.7 °C 7.4 °C 1000.2 hPa West 27.4 km/h 45.1 km/h 86 % 0 mm 0 W/m2
03:48 9.7 °C 7.7 °C 1000.2 hPa West 27.4 km/h 46.7 km/h 87 % 0 mm 0 W/m2
03:53 9.6 °C 7.7 °C 1000.2 hPa West 29 km/h 46.7 km/h 88 % 0 mm 0 W/m2
03:58 9.6 °C 7.7 °C 1000.6 hPa West 27.4 km/h 43.5 km/h 88 % 0 mm 0 W/m2
04:03 9.5 °C 7.6 °C 1000.6 hPa West 27.4 km/h 48.3 km/h 88 % 0 mm 0 W/m2
04:08 9.6 °C 7.6 °C 1000.6 hPa West 27.4 km/h 48.3 km/h 87 % 0 mm 0 W/m2
04:14 9.6 °C 7.6 °C 1000.9 hPa West 25.7 km/h 46.7 km/h 87 % 0 mm 0 W/m2
04:19 9.7 °C 7.8 °C 1000.9 hPa West 22.5 km/h 40.2 km/h 88 % 0 mm 0 W/m2
04:21 9.7 °C 7.8 °C 1000.9 hPa West 20.9 km/h 37 km/h 88 % 0 mm 0 W/m2
04:24 9.7 °C 7.8 °C 1000.9 hPa West 19.3 km/h 37 km/h 88 % 0 mm 0 W/m2
04:26 9.7 °C 7.8 °C 1000.9 hPa West 19.3 km/h 37 km/h 88 % 0 mm 0 W/m2
04:30 9.7 °C 8 °C 1000.9 hPa West 22.5 km/h 43.5 km/h 89 % 0 mm 0 W/m2
04:34 9.7 °C 8 °C 1000.9 hPa West 24.1 km/h 45.1 km/h 89 % 0 mm 0 W/m2
04:39 9.7 °C 8 °C 1000.9 hPa West 25.7 km/h 48.3 km/h 89 % 0 mm 0 W/m2
04:44 9.7 °C 8 °C 1001.2 hPa West 25.7 km/h 48.3 km/h 89 % 0 mm 0 W/m2
04:49 9.7 °C 8 °C 1000.9 hPa West 24.1 km/h 40.2 km/h 89 % 0 mm 0 W/m2
04:54 9.7 °C 7.8 °C 1001.2 hPa West 25.7 km/h 43.5 km/h 88 % 0 mm 0 W/m2
04:59 9.7 °C 7.8 °C 1001.2 hPa West 24.1 km/h 43.5 km/h 88 % 0 mm 0 W/m2
05:04 9.7 °C 8 °C 1001.2 hPa West 20.9 km/h 40.2 km/h 89 % 0 mm 0 W/m2
05:09 9.7 °C 8 °C 1001.2 hPa West 17.7 km/h 35.4 km/h 89 % 0 mm 0 W/m2
05:14 9.6 °C 8.1 °C 1001.2 hPa West 17.7 km/h 30.6 km/h 90 % 0 mm 0 W/m2
05:19 9.6 °C 8.1 °C 1001.6 hPa West 19.3 km/h 38.6 km/h 90 % 0 mm 0 W/m2
05:24 9.6 °C 8.1 °C 1001.6 hPa West 24.1 km/h 49.9 km/h 90 % 0 mm 0 W/m2
05:29 9.7 °C 8.1 °C 1001.6 hPa West 25.7 km/h 49.9 km/h 90 % 0 mm 0 W/m2
05:34 9.7 °C 8 °C 1001.6 hPa West 27.4 km/h 49.9 km/h 89 % 0 mm 0 W/m2
05:39 9.7 °C 8 °C 1001.6 hPa West 27.4 km/h 49.9 km/h 89 % 0 mm 0 W/m2
05:44 9.7 °C 8 °C 1001.6 hPa West 25.7 km/h 40.2 km/h 89 % 0 mm 0 W/m2
05:49 9.7 °C 8 °C 1001.9 hPa West 24.1 km/h 40.2 km/h 89 % 0 mm 0 W/m2
05:54 9.6 °C 7.9 °C 1001.9 hPa West 25.7 km/h 41.8 km/h 89 % 0 mm 0 W/m2
05:59 9.6 °C 7.9 °C 1001.9 hPa West 27.4 km/h 41.8 km/h 89 % 0 mm 0 W/m2
06:04 9.6 °C 7.9 °C 1001.9 hPa West 25.7 km/h 41.8 km/h 89 % 0 mm 0 W/m2
06:09 9.6 °C 7.9 °C 1002.3 hPa West 25.7 km/h 46.7 km/h 89 % 0 mm 0 W/m2
06:14 9.6 °C 7.9 °C 1002.3 hPa West 29 km/h 48.3 km/h 89 % 0 mm 0 W/m2
06:19 9.5 °C 7.6 °C 1002.3 hPa West 27.4 km/h 48.3 km/h 88 % 0 mm 0 W/m2
06:24 9.6 °C 7.9 °C 1002.6 hPa West 27.4 km/h 46.7 km/h 89 % 0 mm 0 W/m2
06:29 9.6 °C 7.9 °C 1002.6 hPa West 29 km/h 46.7 km/h 89 % 0 mm 0 W/m2
06:34 9.5 °C 7.8 °C 1002.6 hPa West 25.7 km/h 45.1 km/h 89 % 0 mm 0 W/m2
06:39 9.4 °C 7.7 °C 1002.9 hPa West 24.1 km/h 45.1 km/h 89 % 0 mm 0 W/m2
06:44 9.4 °C 7.7 °C 1002.9 hPa West 25.7 km/h 49.9 km/h 89 % 0 mm 0 W/m2
06:49 9.5 °C 7.8 °C 1002.6 hPa West 25.7 km/h 49.9 km/h 89 % 0 mm 0 W/m2
06:54 9.6 °C 7.7 °C 1002.6 hPa West 25.7 km/h 48.3 km/h 88 % 0 mm 0 W/m2
06:59 9.7 °C 7.7 °C 1002.6 hPa West 27.4 km/h 48.3 km/h 87 % 0 mm 0 W/m2
07:04 9.7 °C 7.4 °C 1002.6 hPa West 29 km/h 51.5 km/h 86 % 0 mm 0 W/m2
07:09 9.8 °C 7.6 °C 1002.6 hPa West 30.6 km/h 51.5 km/h 86 % 0 mm 0 W/m2
07:11 9.8 °C 7.6 °C 1002.6 hPa West 30.6 km/h 51.5 km/h 86 % 0 mm 0 W/m2
07:16 9.8 °C 7.6 °C 1002.9 hPa West 27.4 km/h 45.1 km/h 86 % 0 mm 0 W/m2
07:21 9.7 °C 7.3 °C 1002.9 hPa West 25.7 km/h 45.1 km/h 85 % 0 mm 0 W/m2
07:26 9.8 °C 7.6 °C 1002.9 hPa West 30.6 km/h 49.9 km/h 86 % 0 mm 0 W/m2
07:28 9.8 °C 7.6 °C 1002.9 hPa West 32.2 km/h 49.9 km/h 86 % 0 mm 0 W/m2
07:33 9.7 °C 7.4 °C 1003.3 hPa West 32.2 km/h 49.9 km/h 86 % 0 mm 0 W/m2
07:38 9.7 °C 7.4 °C 1003.3 hPa West 29 km/h 48.3 km/h 86 % 0 mm 0 W/m2
07:43 9.7 °C 7.4 °C 1003.3 hPa West 27.4 km/h 48.3 km/h 86 % 0 mm 0 W/m2
07:48 9.7 °C 7.4 °C 1003.3 hPa West 29 km/h 49.9 km/h 86 % 0 mm 0 W/m2
07:53 9.7 °C 7.4 °C 1003.3 hPa West 29 km/h 49.9 km/h 86 % 0 mm 5 W/m2
07:58 9.7 °C 7.4 °C 1003.6 hPa West 29 km/h 48.3 km/h 86 % 0 mm 9 W/m2
08:03 9.7 °C 7.3 °C 1003.6 hPa West 32.2 km/h 57.9 km/h 85 % 0 mm 14 W/m2
08:08 9.7 °C 7.4 °C 1003.6 hPa West 30.6 km/h 57.9 km/h 86 % 0 mm 18 W/m2
08:13 9.6 °C 7.4 °C 1003.6 hPa West 29 km/h 48.3 km/h 86 % 0 mm 23 W/m2
08:18 9.6 °C 7.4 °C 1003.6 hPa West 30.6 km/h 49.9 km/h 86 % 0 mm 25 W/m2
08:23 9.6 °C 7.4 °C 1003.6 hPa West 32.2 km/h 49.9 km/h 86 % 0 mm 26 W/m2
08:28 9.6 °C 7.4 °C 1003.9 hPa West 30.6 km/h 51.5 km/h 86 % 0 mm 19 W/m2
08:33 9.6 °C 7.4 °C 1003.9 hPa West 29 km/h 51.5 km/h 86 % 0 mm 18 W/m2
08:38 9.6 °C 7.4 °C 1003.9 hPa West 29 km/h 57.9 km/h 86 % 0 mm 23 W/m2
08:43 9.6 °C 7.2 °C 1004.3 hPa West 32.2 km/h 57.9 km/h 85 % 0 mm 30 W/m2
08:48 9.6 °C 7.2 °C 1004.3 hPa West 32.2 km/h 53.1 km/h 85 % 0 mm 35 W/m2
08:54 9.7 °C 7.1 °C 1004.3 hPa West 33.8 km/h 61.2 km/h 84 % 0 mm 39 W/m2
08:59 9.8 °C 7.2 °C 1004.3 hPa West 32.2 km/h 61.2 km/h 84 % 0 mm 42 W/m2
09:04 9.8 °C 7.2 °C 1004.3 hPa WNW 29 km/h 56.3 km/h 84 % 0 mm 42 W/m2
09:09 9.8 °C 7.2 °C 1004.3 hPa West 30.6 km/h 54.7 km/h 84 % 0 mm 46 W/m2
09:14 9.8 °C 7.4 °C 1004.6 hPa West 30.6 km/h 54.7 km/h 85 % 0 mm 60 W/m2
09:19 9.8 °C 7.4 °C 1004.6 hPa West 30.6 km/h 48.3 km/h 85 % 0 mm 77 W/m2
09:24 9.8 °C 7.4 °C 1005 hPa West 29 km/h 46.7 km/h 85 % 0 mm 72 W/m2
09:29 9.8 °C 7.4 °C 1005 hPa West 29 km/h 51.5 km/h 85 % 0 mm 72 W/m2
09:34 9.8 °C 7.4 °C 1005 hPa West 30.6 km/h 51.5 km/h 85 % 0 mm 65 W/m2
09:39 9.8 °C 7.4 °C 1005 hPa West 30.6 km/h 48.3 km/h 85 % 0 mm 83 W/m2
09:44 9.8 °C 7.4 °C 1005 hPa West 30.6 km/h 48.3 km/h 85 % 0 mm 88 W/m2
09:49 9.8 °C 7.2 °C 1005 hPa WNW 32.2 km/h 57.9 km/h 84 % 0 mm 95 W/m2
09:54 9.8 °C 7.2 °C 1005 hPa WNW 35.4 km/h 57.9 km/h 84 % 0 mm 97 W/m2
09:59 9.8 °C 7.4 °C 1005 hPa WNW 32.2 km/h 54.7 km/h 85 % 0 mm 91 W/m2
10:04 9.8 °C 7.2 °C 1005 hPa West 30.6 km/h 53.1 km/h 84 % 0 mm 86 W/m2
10:09 9.8 °C 7.2 °C 1005.3 hPa West 29 km/h 53.1 km/h 84 % 0 mm 84 W/m2
10:14 9.8 °C 7.2 °C 1005.3 hPa WNW 30.6 km/h 53.1 km/h 84 % 0 mm 86 W/m2
10:19 9.9 °C 7.3 °C 1005.6 hPa WNW 30.6 km/h 49.9 km/h 84 % 0 mm 95 W/m2
10:24 9.9 °C 7.3 °C 1005.6 hPa WNW 30.6 km/h 51.5 km/h 84 % 0 mm 105 W/m2
10:29 9.9 °C 7.3 °C 1005.6 hPa WNW 27.4 km/h 51.5 km/h 84 % 0 mm 144 W/m2
10:34 10.1 °C 7.5 °C 1005.6 hPa WNW 25.7 km/h 48.3 km/h 84 % 0 mm 144 W/m2
10:39 10.1 °C 7.5 °C 1006 hPa WNW 27.4 km/h 48.3 km/h 84 % 0 mm 139 W/m2
10:44 10.2 °C 7.6 °C 1006 hPa West 29 km/h 51.5 km/h 84 % 0 mm 163 W/m2
10:49 10.2 °C 7.6 °C 1006 hPa West 29 km/h 51.5 km/h 84 % 0 mm 102 W/m2
10:54 10.2 °C 7.4 °C 1006.3 hPa West 29 km/h 51.5 km/h 83 % 0 mm 91 W/m2
10:59 10.2 °C 7.4 °C 1006.3 hPa West 29 km/h 45.1 km/h 83 % 0 mm 169 W/m2
11:04 10.3 °C 7.6 °C 1006.3 hPa West 29 km/h 45.1 km/h 83 % 0 mm 144 W/m2
11:09 10.3 °C 7.6 °C 1006.3 hPa WNW 30.6 km/h 61.2 km/h 83 % 0 mm 160 W/m2
11:14 10.4 °C 7.4 °C 1006.7 hPa West 30.6 km/h 61.2 km/h 82 % 0 mm 216 W/m2
11:19 10.6 °C 7.7 °C 1006.7 hPa WNW 29 km/h 45.1 km/h 82 % 0 mm 151 W/m2
11:24 10.6 °C 7.5 °C 1006.7 hPa WNW 29 km/h 49.9 km/h 81 % 0 mm 160 W/m2
11:29 10.7 °C 7.6 °C 1007 hPa WNW 29 km/h 53.1 km/h 81 % 0 mm 142 W/m2
11:34 10.7 °C 7.6 °C 1007 hPa WNW 32.2 km/h 56.3 km/h 81 % 0 mm 209 W/m2
11:36 10.7 °C 7.6 °C 1007 hPa WNW 30.6 km/h 56.3 km/h 81 % 0 mm 200 W/m2
11:41 10.8 °C 7.7 °C 1007 hPa WNW 29 km/h 51.5 km/h 81 % 0 mm 536 W/m2
11:46 11 °C 7.7 °C 1007.3 hPa WNW 29 km/h 51.5 km/h 80 % 0 mm 200 W/m2
11:51 10.9 °C 7.6 °C 1007.3 hPa WNW 27.4 km/h 46.7 km/h 80 % 0 mm 278 W/m2
11:56 10.9 °C 7.6 °C 1007.3 hPa WNW 29 km/h 46.7 km/h 80 % 0 mm 206 W/m2
12:01 10.8 °C 7.7 °C 1007.7 hPa WNW 25.7 km/h 45.1 km/h 81 % 0 mm 188 W/m2
12:06 10.8 °C 7.3 °C 1007.7 hPa WNW 29 km/h 61.2 km/h 79 % 0 mm 192 W/m2
12:11 10.8 °C 7.3 °C 1007.7 hPa WNW 32.2 km/h 61.2 km/h 79 % 0 mm 515 W/m2
12:16 10.9 °C 7.4 °C 1007.7 hPa WNW 29 km/h 53.1 km/h 79 % 0 mm 155 W/m2
12:21 11.1 °C 7.6 °C 1007.7 hPa WNW 29 km/h 53.1 km/h 79 % 0 mm 153 W/m2
12:26 11.1 °C 7.4 °C 1008 hPa WNW 29 km/h 51.5 km/h 78 % 0 mm 169 W/m2
12:31 11.1 °C 7.4 °C 1008 hPa WNW 30.6 km/h 61.2 km/h 78 % 0 mm 181 W/m2
12:36 11.1 °C 7.4 °C 1008.4 hPa West 33.8 km/h 61.2 km/h 78 % 0 mm 244 W/m2
12:41 11.1 °C 7.4 °C 1008.4 hPa West 32.2 km/h 53.1 km/h 78 % 0 mm 172 W/m2
12:46 11.1 °C 7.4 °C 1008 hPa WNW 29 km/h 53.1 km/h 78 % 0 mm 218 W/m2
12:51 11.1 °C 7.4 °C 1008.4 hPa West 29 km/h 53.1 km/h 78 % 0 mm 216 W/m2
12:56 11.1 °C 7.4 °C 1008.4 hPa WNW 29 km/h 48.3 km/h 78 % 0 mm 206 W/m2
13:01 11.2 °C 7.3 °C 1008.4 hPa WNW 30.6 km/h 48.3 km/h 77 % 0 mm 274 W/m2
13:06 11.4 °C 7.5 °C 1008.7 hPa West 30.6 km/h 51.5 km/h 77 % 0 mm 160 W/m2
13:12 11.4 °C 7.3 °C 1008.4 hPa West 27.4 km/h 51.5 km/h 76 % 0 mm 155 W/m2
13:17 11.4 °C 7.5 °C 1008.7 hPa West 25.7 km/h 41.8 km/h 77 % 0 mm 148 W/m2
13:22 11.3 °C 7.4 °C 1008.7 hPa West 25.7 km/h 46.7 km/h 77 % 0 mm 171 W/m2
13:25 11.3 °C 7.2 °C 1008.7 hPa WNW 27.4 km/h 51.5 km/h 76 % 0 mm 151 W/m2
13:30 11.3 °C 7.2 °C 1009 hPa WNW 30.6 km/h 51.5 km/h 76 % 0 mm 153 W/m2
13:35 11.3 °C 7.2 °C 1008.7 hPa West 30.6 km/h 49.9 km/h 76 % 0 mm 153 W/m2
13:40 11.3 °C 7.2 °C 1008.7 hPa WNW 29 km/h 49.9 km/h 76 % 0 mm 195 W/m2
13:45 11.4 °C 7.3 °C 1009 hPa WNW 30.6 km/h 49.9 km/h 76 % 0 mm 174 W/m2
13:50 11.4 °C 7.3 °C 1009 hPa West 30.6 km/h 49.9 km/h 76 % 0 mm 167 W/m2
14:00 11.4 °C 7.3 °C 1009 hPa West 29 km/h 51.5 km/h 76 % 0 mm 139 W/m2
14:05 11.4 °C 7.3 °C 1009 hPa West 27.4 km/h 48.3 km/h 76 % 0 mm 141 W/m2
14:10 11.4 °C 7.1 °C 1009.4 hPa West 30.6 km/h 48.3 km/h 75 % 0 mm 141 W/m2
14:15 11.4 °C 7.3 °C 1009 hPa West 29 km/h 49.9 km/h 76 % 0 mm 149 W/m2
14:20 11.6 °C 7.5 °C 1009.4 hPa West 29 km/h 49.9 km/h 76 % 0 mm 373 W/m2
14:25 11.8 °C 7.5 °C 1009.4 hPa West 30.6 km/h 51.5 km/h 75 % 0 mm 179 W/m2
14:30 11.7 °C 7.4 °C 1009.4 hPa West 32.2 km/h 64.4 km/h 75 % 0 mm 169 W/m2
14:35 11.6 °C 7.5 °C 1009.4 hPa WNW 32.2 km/h 64.4 km/h 76 % 0 mm 207 W/m2
14:40 11.6 °C 7.5 °C 1009.4 hPa WNW 27.4 km/h 49.9 km/h 76 % 0 mm 225 W/m2
14:45 11.7 °C 7.6 °C 1009.4 hPa WNW 24.1 km/h 46.7 km/h 76 % 0 mm 383 W/m2
14:46 11.7 °C 7.6 °C 1009.4 hPa West 24.1 km/h 46.7 km/h 76 % 0 mm 383 W/m2
14:51 11.9 °C 7.6 °C 1009.4 hPa WNW 27.4 km/h 48.3 km/h 75 % 0 mm 348 W/m2
14:56 12.1 °C 7.6 °C 1009.4 hPa WNW 29 km/h 49.9 km/h 74 % 0 mm 343 W/m2
15:01 12.1 °C 7.4 °C 1009.4 hPa WNW 29 km/h 49.9 km/h 73 % 0 mm 334 W/m2
15:05 12.1 °C 7.4 °C 1009.4 hPa WNW 27.4 km/h 49.9 km/h 73 % 0 mm 327 W/m2
15:10 12.1 °C 7.4 °C 1009.4 hPa WNW 27.4 km/h 51.5 km/h 73 % 0 mm 322 W/m2
15:15 12.1 °C 7.2 °C 1009.4 hPa WNW 30.6 km/h 53.1 km/h 72 % 0 mm 311 W/m2
15:20 12.1 °C 7.2 °C 1009.4 hPa WNW 35.4 km/h 57.9 km/h 72 % 0 mm 301 W/m2
15:25 12 °C 7.3 °C 1009.7 hPa WNW 37 km/h 57.9 km/h 73 % 0 mm 292 W/m2
15:30 11.9 °C 7.2 °C 1009.7 hPa WNW 37 km/h 54.7 km/h 73 % 0 mm 260 W/m2
15:35 11.9 °C 7.2 °C 1009.7 hPa WNW 35.4 km/h 54.7 km/h 73 % 0 mm 272 W/m2
15:41 11.8 °C 7.1 °C 1009.7 hPa WNW 33.8 km/h 61.2 km/h 73 % 0 mm 258 W/m2
15:46 11.8 °C 7.1 °C 1009.7 hPa WNW 35.4 km/h 61.2 km/h 73 % 0 mm 248 W/m2
15:50 11.8 °C 7.1 °C 1010 hPa WNW 33.8 km/h 56.3 km/h 73 % 0 mm 241 W/m2
15:56 11.8 °C 6.9 °C 1010.4 hPa WNW 33.8 km/h 56.3 km/h 72 % 0 mm 139 W/m2
16:01 11.7 °C 7 °C 1010.4 hPa WNW 32.2 km/h 51.5 km/h 73 % 0 mm 287 W/m2
16:06 11.8 °C 7.1 °C 1010.4 hPa WNW 30.6 km/h 49.9 km/h 73 % 0 mm 250 W/m2
16:11 11.8 °C 7.1 °C 1010.4 hPa WNW 29 km/h 49.9 km/h 73 % 0 mm 199 W/m2
16:16 11.7 °C 7 °C 1010.4 hPa WNW 27.4 km/h 43.5 km/h 73 % 0 mm 67 W/m2
16:21 11.5 °C 7 °C 1010.4 hPa WNW 27.4 km/h 46.7 km/h 74 % 0 mm 209 W/m2
16:26 11.5 °C 7 °C 1010.7 hPa WNW 27.4 km/h 48.3 km/h 74 % 0 mm 91 W/m2
16:31 11.4 °C 6.9 °C 1010.7 hPa WNW 27.4 km/h 48.3 km/h 74 % 0 mm 46 W/m2
16:36 11.3 °C 6.8 °C 1010.7 hPa WNW 27.4 km/h 45.1 km/h 74 % 0 mm 39 W/m2
16:37 11.3 °C 7 °C 1010.7 hPa WNW 27.4 km/h 45.1 km/h 75 % 0 mm 39 W/m2
16:42 11.1 °C 6.8 °C 1010.7 hPa WNW 25.7 km/h 37 km/h 75 % 0 mm 32 W/m2
16:47 10.9 °C 6.7 °C 1010.7 hPa WNW 24.1 km/h 43.5 km/h 75 % 0 mm 30 W/m2
16:52 10.9 °C 6.8 °C 1011.1 hPa WNW 20.9 km/h 43.5 km/h 76 % 0 mm 26 W/m2
16:57 10.8 °C 6.7 °C 1011.1 hPa West 17.7 km/h 32.2 km/h 76 % 0 mm 21 W/m2
17:02 10.7 °C 6.7 °C 1011.1 hPa West 19.3 km/h 33.8 km/h 76 % 0 mm 25 W/m2
17:07 10.7 °C 6.7 °C 1011.4 hPa West 19.3 km/h 33.8 km/h 76 % 0 mm 35 W/m2
17:12 10.7 °C 6.7 °C 1011.7 hPa West 17.7 km/h 37 km/h 76 % 0 mm 39 W/m2
17:17 10.8 °C 6.7 °C 1011.7 hPa West 16.1 km/h 37 km/h 76 % 0 mm 46 W/m2
17:22 10.8 °C 6.7 °C 1011.7 hPa West 14.5 km/h 29 km/h 76 % 0 mm 44 W/m2
17:27 10.9 °C 6.7 °C 1011.7 hPa WNW 16.1 km/h 29 km/h 75 % 0 mm 28 W/m2
17:32 10.9 °C 6.7 °C 1011.7 hPa WNW 16.1 km/h 30.6 km/h 75 % 0 mm 26 W/m2
17:37 10.8 °C 6.6 °C 1012.1 hPa WNW 17.7 km/h 35.4 km/h 75 % 0 mm 18 W/m2
17:42 10.8 °C 6.6 °C 1012.1 hPa WNW 17.7 km/h 35.4 km/h 75 % 0 mm 16 W/m2
17:47 10.7 °C 6.4 °C 1012.1 hPa WNW 16.1 km/h 24.1 km/h 75 % 0 mm 9 W/m2
17:52 10.7 °C 6.4 °C 1012.1 hPa WNW 16.1 km/h 24.1 km/h 75 % 0 mm 5 W/m2
17:57 10.6 °C 6.3 °C 1012.4 hPa WNW 16.1 km/h 24.1 km/h 75 % 0 mm 0 W/m2
18:02 10.5 °C 6.4 °C 1012.4 hPa WNW 12.9 km/h 24.1 km/h 76 % 0 mm 0 W/m2
18:07 10.4 °C 6.2 °C 1012.4 hPa West 12.9 km/h 24.1 km/h 75 % 0 mm 0 W/m2
18:12 10.3 °C 6.3 °C 1012.4 hPa West 12.9 km/h 22.5 km/h 76 % 0 mm 0 W/m2
18:17 10.3 °C 6.3 °C 1012.4 hPa West 12.9 km/h 22.5 km/h 76 % 0 mm 0 W/m2
18:22 10.2 °C 6.2 °C 1012.4 hPa West 11.3 km/h 22.5 km/h 76 % 0 mm 0 W/m2
18:27 10.1 °C 6.1 °C 1012.4 hPa WNW 8 km/h 22.5 km/h 76 % 0 mm 0 W/m2
18:32 10 °C 5.9 °C 1012.8 hPa WNW 8 km/h 19.3 km/h 76 % 0 mm 0 W/m2
18:37 9.9 °C 5.9 °C 1012.8 hPa WNW 9.7 km/h 19.3 km/h 76 % 0 mm 0 W/m2
18:42 9.8 °C 5.9 °C 1012.8 hPa WNW 9.7 km/h 17.7 km/h 77 % 0 mm 0 W/m2
18:47 9.8 °C 5.9 °C 1012.8 hPa WNW 9.7 km/h 17.7 km/h 77 % 0 mm 0 W/m2
18:52 9.7 °C 5.8 °C 1012.8 hPa WNW 9.7 km/h 17.7 km/h 77 % 0 mm 0 W/m2
18:57 9.7 °C 6.1 °C 1013.1 hPa WNW 11.3 km/h 22.5 km/h 78 % 0 mm 0 W/m2
19:02 9.8 °C 6.2 °C 1013.1 hPa WNW 12.9 km/h 22.5 km/h 78 % 0 mm 0 W/m2
19:07 9.8 °C 6.2 °C 1013.1 hPa WNW 12.9 km/h 22.5 km/h 78 % 0 mm 0 W/m2
19:12 10 °C 6.2 °C 1013.1 hPa WNW 16.1 km/h 25.7 km/h 77 % 0 mm 0 W/m2
19:17 10.1 °C 6.4 °C 1013.1 hPa WNW 16.1 km/h 29 km/h 78 % 0 mm 0 W/m2
19:22 10.1 °C 6.4 °C 1013.1 hPa WNW 16.1 km/h 29 km/h 78 % 0 mm 0 W/m2
19:25 10.1 °C 6.4 °C 1013.1 hPa WNW 17.7 km/h 29 km/h 78 % 0 mm 0 W/m2
19:30 10 °C 6.3 °C 1013.1 hPa WNW 17.7 km/h 29 km/h 78 % 0 mm 0 W/m2
19:35 10 °C 6.3 °C 1013.1 hPa WNW 17.7 km/h 29 km/h 78 % 0 mm 0 W/m2
19:40 9.9 °C 6.2 °C 1013.4 hPa WNW 17.7 km/h 32.2 km/h 78 % 0 mm 0 W/m2
19:45 9.9 °C 6.2 °C 1013.4 hPa WNW 16.1 km/h 32.2 km/h 78 % 0 mm 0 W/m2
19:50 9.9 °C 6.4 °C 1013.4 hPa WNW 16.1 km/h 32.2 km/h 79 % 0 mm 0 W/m2
19:55 9.8 °C 6.3 °C 1013.4 hPa WNW 16.1 km/h 24.1 km/h 79 % 0 mm 0 W/m2
20:00 9.8 °C 6.3 °C 1013.4 hPa WNW 17.7 km/h 29 km/h 79 % 0 mm 0 W/m2
20:05 9.8 °C 6.5 °C 1013.4 hPa WNW 19.3 km/h 29 km/h 80 % 0 mm 0 W/m2
20:10 9.8 °C 6.5 °C 1013.4 hPa WNW 20.9 km/h 35.4 km/h 80 % 0 mm 0 W/m2
20:15 9.8 °C 6.5 °C 1013.4 hPa WNW 20.9 km/h 35.4 km/h 80 % 0 mm 0 W/m2
20:20 9.8 °C 6.3 °C 1013.4 hPa WNW 20.9 km/h 33.8 km/h 79 % 0 mm 0 W/m2
20:22 9.8 °C 6.3 °C 1013.8 hPa WNW 20.9 km/h 33.8 km/h 79 % 0 mm 0 W/m2
20:27 9.8 °C 6.3 °C 1013.8 hPa WNW 20.9 km/h 33.8 km/h 79 % 0 mm 0 W/m2
20:32 9.7 °C 6.4 °C 1013.8 hPa WNW 17.7 km/h 29 km/h 80 % 0 mm 0 W/m2
20:36 9.7 °C 6.4 °C 1013.8 hPa WNW 19.3 km/h 32.2 km/h 80 % 0 mm 0 W/m2
20:41 9.7 °C 6.4 °C 1013.8 hPa WNW 19.3 km/h 32.2 km/h 80 % 0 mm 0 W/m2
20:46 9.6 °C 6.3 °C 1013.8 hPa WNW 19.3 km/h 33.8 km/h 80 % 0 mm 0 W/m2
20:51 9.6 °C 6.3 °C 1013.8 hPa WNW 20.9 km/h 33.8 km/h 80 % 0 mm 0 W/m2
20:56 9.6 °C 6.3 °C 1013.8 hPa WNW 20.9 km/h 33.8 km/h 80 % 0 mm 0 W/m2
21:01 9.6 °C 6.3 °C 1013.8 hPa WNW 19.3 km/h 30.6 km/h 80 % 0 mm 0 W/m2
21:06 9.6 °C 6.3 °C 1013.8 hPa WNW 19.3 km/h 32.2 km/h 80 % 0 mm 0 W/m2
21:11 9.6 °C 6.3 °C 1013.8 hPa WNW 22.5 km/h 35.4 km/h 80 % 0 mm 0 W/m2
21:17 9.6 °C 6.3 °C 1013.8 hPa WNW 22.5 km/h 35.4 km/h 80 % 0 mm 0 W/m2
21:22 9.6 °C 6.3 °C 1013.8 hPa WNW 19.3 km/h 30.6 km/h 80 % 0 mm 0 W/m2
21:27 9.6 °C 6.3 °C 1013.8 hPa WNW 17.7 km/h 30.6 km/h 80 % 0 mm 0 W/m2
21:32 9.5 °C 6.4 °C 1014.1 hPa WNW 16.1 km/h 29 km/h 81 % 0 mm 0 W/m2
21:37 9.4 °C 6.3 °C 1014.1 hPa WNW 14.5 km/h 25.7 km/h 81 % 0 mm 0 W/m2
21:42 9.4 °C 6.3 °C 1014.1 hPa WNW 16.1 km/h 29 km/h 81 % 0 mm 0 W/m2
21:47 9.4 °C 6.5 °C 1014.1 hPa WNW 16.1 km/h 29 km/h 82 % 0 mm 0 W/m2
21:52 9.4 °C 6.5 °C 1014.1 hPa WNW 14.5 km/h 25.7 km/h 82 % 0 mm 0 W/m2
21:57 9.3 °C 6.4 °C 1014.1 hPa WNW 14.5 km/h 22.5 km/h 82 % 0 mm 0 W/m2
22:02 9.3 °C 6.4 °C 1014.1 hPa WNW 12.9 km/h 24.1 km/h 82 % 0 mm 0 W/m2
22:07 9.3 °C 6.6 °C 1014.1 hPa WNW 14.5 km/h 24.1 km/h 83 % 0 mm 0 W/m2
22:12 9.3 °C 6.6 °C 1014.1 hPa WNW 14.5 km/h 24.1 km/h 83 % 0 mm 0 W/m2
22:17 9.3 °C 6.6 °C 1014.4 hPa WNW 12.9 km/h 22.5 km/h 83 % 0 mm 0 W/m2
22:22 9.3 °C 6.4 °C 1014.4 hPa WNW 14.5 km/h 22.5 km/h 82 % 0 mm 0 W/m2
22:27 9.3 °C 6.4 °C 1014.4 hPa WNW 14.5 km/h 22.5 km/h 82 % 0 mm 0 W/m2
22:32 9.3 °C 6.4 °C 1014.4 hPa WNW 14.5 km/h 22.5 km/h 82 % 0 mm 0 W/m2
22:37 9.3 °C 6.4 °C 1014.4 hPa WNW 14.5 km/h 20.9 km/h 82 % 0 mm 0 W/m2
22:42 9.3 °C 6.4 °C 1014.1 hPa WNW 14.5 km/h 24.1 km/h 82 % 0 mm 0 W/m2
22:47 9.3 °C 6.4 °C 1014.1 hPa WNW 16.1 km/h 25.7 km/h 82 % 0 mm 0 W/m2
22:52 9.3 °C 6.6 °C 1014.4 hPa WNW 14.5 km/h 25.7 km/h 83 % 0 mm 0 W/m2
22:57 9.3 °C 6.6 °C 1014.4 hPa WNW 11.3 km/h 19.3 km/h 83 % 0 mm 0 W/m2
23:02 9.3 °C 6.7 °C 1014.4 hPa WNW 9.7 km/h 20.9 km/h 84 % 0 mm 0 W/m2
23:07 9.2 °C 6.6 °C 1014.4 hPa WNW 11.3 km/h 20.9 km/h 84 % 0 mm 0 W/m2
23:12 9.2 °C 6.8 °C 1014.8 hPa WNW 11.3 km/h 20.9 km/h 85 % 0 mm 0 W/m2
23:17 9.1 °C 6.7 °C 1014.8 hPa WNW 9.7 km/h 20.9 km/h 85 % 0 mm 0 W/m2
23:22 9.1 °C 6.9 °C 1014.8 hPa WNW 9.7 km/h 24.1 km/h 86 % 0 mm 0 W/m2
23:27 9.1 °C 6.9 °C 1014.4 hPa WNW 8 km/h 24.1 km/h 86 % 0 mm 0 W/m2
23:32 9 °C 6.9 °C 1014.4 hPa WNW 8 km/h 16.1 km/h 87 % 0 mm 0 W/m2
23:37 9 °C 6.9 °C 1014.4 hPa WNW 6.4 km/h 12.9 km/h 87 % 0 mm 0 W/m2
23:42 8.9 °C 7 °C 1014.4 hPa WNW 4.8 km/h 16.1 km/h 88 % 0 mm 0 W/m2
23:47 8.9 °C 7 °C 1014.4 hPa West 4.8 km/h 16.1 km/h 88 % 0 mm 0 W/m2
23:52 8.9 °C 7.2 °C 1014.4 hPa West 6.4 km/h 14.5 km/h 89 % 0 mm 0 W/m2
23:57 8.9 °C 7.2 °C 1014.4 hPa West 6.4 km/h 14.5 km/h 89 % 0 mm 0 W/m2
Delerius-Weather
Compliments of Weather Underground - 2.25 mb

Data updates at regular intervals.